首页
METAR-TAF:

METAR-TAF

机场 :

西安咸阳国际机场

西安, 中华人民共和国

纬度: 34-26N, 经度: 108-45E, 海拔: 479米

当前天气观测

该预报发布于57分钟前的17:00 UTC
风速6节,风向东转东南,在南转南东之间变化
温度 30°C
湿度 49%
气压 1003 hPa
能见度10公里或以上
1500米以下无云,无积雨云

METAR: ZLXY 231700Z 12003MPS 080V150 CAVOK 30/18 Q1003 NOSIG

时间: 01:57 (17:57 UTC)

预报

该预报发布于2小时和52分钟前的15:05 UTC
预报有效从23日的 18点(UTC)到 24日的 18点(UTC)
风速8节,风向东转东北
能見度: 5000
短暂存在
从 24日的 14点(UTC)到 24日的 18点(UTC)
少量云层高于4000英尺, 积雨云.
雷暴, 小雨

TAF: ZLXY 231505Z 2318/2418 06004MPS 5000 HZ NSC TX35/2408Z TN23/2322Z TEMPO 2414/2418 -TSRA FEW040CB

超过4000个机场的气象观测和天气预报(METAR&TAF报告)。

可查询的气象台以黄色和红色小点在地图上表示。

将鼠标移到小点上方,可查看气象台名称。

然后点击查看天气观测和预报。

如需切换地图:点击带黑十字的绿色按钮放大地图;点击带横线的绿色按钮缩小地图;或者点击绿色箭头查看邻近地区的地图。


METAR-TAF: